Terminal Aerodrome Forecast
Issued by NWS

Home | Current Version | Previous Version | Text Only | Print | Product List | Glossary On
Versions: 1 2 3 4 5 6 7 8 9 10 11 12 13 14 15 16 17 18 19 20 21 22 23 24 25 26 27 28 29 30 31 32 33 34 35 36 37 38 39 40 41 42 43 44 45 46 47 48 49 50
000
FTUS41 KALY 271720
TAFPSF
TAF
KPSF 271720Z 2718/2818 06003KT 2SM -DZ VCSH OVC003
      TEMPO 2718/2722 4SM BR SCT003 OVC008
     FM272200 21005KT 6SM BR VCSH OVC008
     FM280300 VRB03KT 1 1/2SM -DZ BR OVC003
     FM281600 VRB04KT P6SM OVC006 PROB30 2816/2818 2SM -RA BR
      OVC003=

USA.gov is the U.S. government's official web portal to all federal, state and local government web resources and services.